sensor_id;sensor_type;location;lat;lon;timestamp;pressure;altitude;pressure_sealevel;temperature;humidity
5380;BME280;2713;42.680;23.310;2023-01-25T00:02:02;96189.31;;;3.55;81.18
5380;BME280;2713;42.680;23.310;2023-01-25T00:04:29;96195.69;;;3.74;82.04
5380;BME280;2713;42.680;23.310;2023-01-25T00:06:56;96193.41;;;3.82;80.37
5380;BME280;2713;42.680;23.310;2023-01-25T00:09:23;96204.38;;;3.84;80.90
5380;BME280;2713;42.680;23.310;2023-01-25T00:11:50;96197.63;;;3.59;81.02
5380;BME280;2713;42.680;23.310;2023-01-25T00:14:22;96198.84;;;3.66;81.77
5380;BME280;2713;42.680;23.310;2023-01-25T00:16:49;96195.91;;;3.71;81.08
5380;BME280;2713;42.680;23.310;2023-01-25T00:19:16;96193.19;;;3.37;82.63
5380;BME280;2713;42.680;23.310;2023-01-25T00:21:43;96192.53;;;3.46;82.77
5380;BME280;2713;42.680;23.310;2023-01-25T00:24:10;96192.88;;;3.29;82.94
5380;BME280;2713;42.680;23.310;2023-01-25T00:26:39;96195.91;;;3.47;82.74
5380;BME280;2713;42.680;23.310;2023-01-25T00:29:10;96196.75;;;3.47;83.04
5380;BME280;2713;42.680;23.310;2023-01-25T00:31:49;96184.78;;;3.35;82.20
5380;BME280;2713;42.680;23.310;2023-01-25T00:34:43;96186.50;;;3.35;82.87
5380;BME280;2713;42.680;23.310;2023-01-25T00:37:14;96192.50;;;3.59;82.30
5380;BME280;2713;42.680;23.310;2023-01-25T00:39:45;96196.03;;;3.93;82.27
5380;BME280;2713;42.680;23.310;2023-01-25T00:42:12;96197.34;;;3.98;80.50
5380;BME280;2713;42.680;23.310;2023-01-25T00:44:40;96197.50;;;3.84;79.87
5380;BME280;2713;42.680;23.310;2023-01-25T00:47:09;96200.03;;;3.97;79.50
5380;BME280;2713;42.680;23.310;2023-01-25T00:49:37;96190.78;;;3.71;80.80
5380;BME280;2713;42.680;23.310;2023-01-25T00:52:05;96197.56;;;3.72;81.06
5380;BME280;2713;42.680;23.310;2023-01-25T00:54:32;96198.09;;;3.88;80.26
5380;BME280;2713;42.680;23.310;2023-01-25T00:56:59;96202.16;;;4.03;79.59
5380;BME280;2713;42.680;23.310;2023-01-25T00:59:26;96199.22;;;4.07;78.48
5380;BME280;2713;42.680;23.310;2023-01-25T01:01:53;96199.78;;;4.24;78.40
5380;BME280;2713;42.680;23.310;2023-01-25T01:04:22;96172.75;;;3.83;78.46
5380;BME280;2713;42.680;23.310;2023-01-25T01:06:51;96195.00;;;3.95;78.25
5380;BME280;2713;42.680;23.310;2023-01-25T01:09:20;96202.41;;;4.11;78.62
5380;BME280;2713;42.680;23.310;2023-01-25T01:11:47;96199.13;;;4.09;78.55
5380;BME280;2713;42.680;23.310;2023-01-25T01:14:16;96197.78;;;3.92;78.86
5380;BME280;2713;42.680;23.310;2023-01-25T01:16:43;96199.84;;;3.64;80.31
5380;BME280;2713;42.680;23.310;2023-01-25T01:19:10;96200.25;;;3.70;80.64
5380;BME280;2713;42.680;23.310;2023-01-25T01:21:38;96192.31;;;3.97;79.05
5380;BME280;2713;42.680;23.310;2023-01-25T01:24:07;96190.53;;;3.97;78.72
5380;BME280;2713;42.680;23.310;2023-01-25T01:26:34;96188.03;;;3.85;79.99
5380;BME280;2713;42.680;23.310;2023-01-25T01:29:01;96186.00;;;3.66;79.83
5380;BME280;2713;42.680;23.310;2023-01-25T01:31:27;96179.84;;;3.80;79.68
5380;BME280;2713;42.680;23.310;2023-01-25T01:34:11;96178.66;;;3.73;80.11
5380;BME280;2713;42.680;23.310;2023-01-25T01:36:40;96174.84;;;3.89;79.62
5380;BME280;2713;42.680;23.310;2023-01-25T01:39:07;96180.28;;;3.74;79.48
5380;BME280;2713;42.680;23.310;2023-01-25T01:41:35;96177.22;;;3.69;80.04
5380;BME280;2713;42.680;23.310;2023-01-25T01:44:02;96178.34;;;3.88;79.97
5380;BME280;2713;42.680;23.310;2023-01-25T01:46:32;96175.88;;;4.11;79.67
5380;BME280;2713;42.680;23.310;2023-01-25T01:49:05;96171.09;;;3.82;80.30
5380;BME280;2713;42.680;23.310;2023-01-25T01:51:45;96171.97;;;4.05;80.00
5380;BME280;2713;42.680;23.310;2023-01-25T01:54:21;96144.28;;;3.74;79.97
5380;BME280;2713;42.680;23.310;2023-01-25T01:56:54;96172.13;;;4.15;79.16
5380;BME280;2713;42.680;23.310;2023-01-25T01:59:28;96171.53;;;4.11;78.56
5380;BME280;2713;42.680;23.310;2023-01-25T02:01:56;96172.66;;;3.96;80.06
5380;BME280;2713;42.680;23.310;2023-01-25T02:04:24;96168.53;;;3.82;79.89
5380;BME280;2713;42.680;23.310;2023-01-25T02:06:58;96181.75;;;3.89;80.03
5380;BME280;2713;42.680;23.310;2023-01-25T02:09:28;96175.75;;;4.12;79.76
5380;BME280;2713;42.680;23.310;2023-01-25T02:11:58;96175.28;;;4.18;78.57
5380;BME280;2713;42.680;23.310;2023-01-25T02:14:27;96178.81;;;4.17;79.66
5380;BME280;2713;42.680;23.310;2023-01-25T02:16:54;96173.94;;;4.36;78.96
5380;BME280;2713;42.680;23.310;2023-01-25T02:19:32;96168.41;;;4.19;79.34
5380;BME280;2713;42.680;23.310;2023-01-25T02:22:07;96175.97;;;4.09;78.53
5380;BME280;2713;42.680;23.310;2023-01-25T02:24:38;96166.66;;;4.19;79.17
5380;BME280;2713;42.680;23.310;2023-01-25T02:27:09;96178.63;;;4.31;78.87
5380;BME280;2713;42.680;23.310;2023-01-25T02:29:36;96176.19;;;4.41;78.29
5380;BME280;2713;42.680;23.310;2023-01-25T02:34:31;96173.53;;;4.76;78.03
5380;BME280;2713;42.680;23.310;2023-01-25T02:37:00;96176.47;;;4.82;77.36
5380;BME280;2713;42.680;23.310;2023-01-25T02:39:28;96169.19;;;4.76;77.52
5380;BME280;2713;42.680;23.310;2023-01-25T02:41:55;96165.34;;;4.82;77.64
5380;BME280;2713;42.680;23.310;2023-01-25T02:44:26;96161.34;;;4.67;76.88
5380;BME280;2713;42.680;23.310;2023-01-25T02:46:55;96165.78;;;4.87;77.30
5380;BME280;2713;42.680;23.310;2023-01-25T02:49:22;96166.97;;;4.83;76.32
5380;BME280;2713;42.680;23.310;2023-01-25T02:51:50;96165.91;;;4.85;76.36
5380;BME280;2713;42.680;23.310;2023-01-25T02:54:21;96166.75;;;4.86;76.56
5380;BME280;2713;42.680;23.310;2023-01-25T02:56:49;96161.81;;;4.60;76.04
5380;BME280;2713;42.680;23.310;2023-01-25T02:59:16;96166.00;;;4.73;75.91
5380;BME280;2713;42.680;23.310;2023-01-25T03:01:49;96171.91;;;4.86;75.75
5380;BME280;2713;42.680;23.310;2023-01-25T03:04:16;96166.28;;;4.92;75.27
5380;BME280;2713;42.680;23.310;2023-01-25T03:06:43;96169.66;;;4.81;75.04
5380;BME280;2713;42.680;23.310;2023-01-25T03:09:10;96170.94;;;4.87;75.29
5380;BME280;2713;42.680;23.310;2023-01-25T03:11:44;96178.66;;;4.87;74.90
5380;BME280;2713;42.680;23.310;2023-01-25T03:14:12;96173.06;;;4.93;75.68
5380;BME280;2713;42.680;23.310;2023-01-25T03:16:39;96175.41;;;4.85;75.67
5380;BME280;2713;42.680;23.310;2023-01-25T03:19:07;96171.41;;;4.92;75.60
5380;BME280;2713;42.680;23.310;2023-01-25T03:21:35;96168.84;;;5.03;75.18
5380;BME280;2713;42.680;23.310;2023-01-25T03:24:02;96164.88;;;5.10;74.76
5380;BME280;2713;42.680;23.310;2023-01-25T03:26:35;96169.28;;;4.97;74.63
5380;BME280;2713;42.680;23.310;2023-01-25T03:29:30;96171.28;;;4.93;75.75
5380;BME280;2713;42.680;23.310;2023-01-25T03:31:58;96165.44;;;5.02;75.27
5380;BME280;2713;42.680;23.310;2023-01-25T03:34:26;96169.28;;;5.08;74.42
5380;BME280;2713;42.680;23.310;2023-01-25T03:36:53;96170.00;;;4.99;74.84
5380;BME280;2713;42.680;23.310;2023-01-25T03:39:20;96168.13;;;5.12;74.61
5380;BME280;2713;42.680;23.310;2023-01-25T03:41:47;96162.72;;;5.15;74.30
5380;BME280;2713;42.680;23.310;2023-01-25T03:44:14;96164.72;;;5.23;73.65
5380;BME280;2713;42.680;23.310;2023-01-25T03:46:43;96163.91;;;5.22;74.18
5380;BME280;2713;42.680;23.310;2023-01-25T03:49:10;96164.72;;;5.23;74.03
5380;BME280;2713;42.680;23.310;2023-01-25T03:51:39;96162.47;;;5.29;74.36
5380;BME280;2713;42.680;23.310;2023-01-25T03:54:06;96163.16;;;5.31;74.02
5380;BME280;2713;42.680;23.310;2023-01-25T03:56:35;96154.75;;;5.07;73.36
5380;BME280;2713;42.680;23.310;2023-01-25T03:59:13;96161.34;;;4.89;74.69
5380;BME280;2713;42.680;23.310;2023-01-25T04:01:41;96148.94;;;4.83;75.11
5380;BME280;2713;42.680;23.310;2023-01-25T04:04:08;96155.72;;;4.73;75.85
5380;BME280;2713;42.680;23.310;2023-01-25T04:06:39;96155.13;;;4.80;75.39
5380;BME280;2713;42.680;23.310;2023-01-25T04:09:06;96151.16;;;4.65;76.38
5380;BME280;2713;42.680;23.310;2023-01-25T04:11:38;96146.97;;;4.75;75.82
5380;BME280;2713;42.680;23.310;2023-01-25T04:14:05;96147.97;;;4.73;76.23
5380;BME280;2713;42.680;23.310;2023-01-25T04:16:41;96119.66;;;4.39;76.64
5380;BME280;2713;42.680;23.310;2023-01-25T04:19:37;96137.22;;;4.34;77.99
5380;BME280;2713;42.680;23.310;2023-01-25T04:22:10;96142.75;;;4.52;77.37
5380;BME280;2713;42.680;23.310;2023-01-25T04:24:37;96145.88;;;4.55;76.75
5380;BME280;2713;42.680;23.310;2023-01-25T04:27:04;96117.19;;;4.49;77.08
5380;BME280;2713;42.680;23.310;2023-01-25T04:29:37;96143.75;;;4.49;76.85
5380;BME280;2713;42.680;23.310;2023-01-25T04:32:04;96147.06;;;4.51;77.61
5380;BME280;2713;42.680;23.310;2023-01-25T04:34:32;96153.81;;;4.52;77.02
5380;BME280;2713;42.680;23.310;2023-01-25T04:36:59;96149.94;;;4.36;77.91
5380;BME280;2713;42.680;23.310;2023-01-25T04:39:31;96150.69;;;4.38;76.98
5380;BME280;2713;42.680;23.310;2023-01-25T04:41:58;96159.41;;;4.35;77.51
5380;BME280;2713;42.680;23.310;2023-01-25T04:44:25;96155.59;;;4.52;77.10
5380;BME280;2713;42.680;23.310;2023-01-25T04:46:52;96159.81;;;4.64;76.49
5380;BME280;2713;42.680;23.310;2023-01-25T04:49:19;96155.25;;;4.68;76.33
5380;BME280;2713;42.680;23.310;2023-01-25T04:51:45;96155.13;;;4.58;76.52
5380;BME280;2713;42.680;23.310;2023-01-25T04:54:12;96156.41;;;4.64;76.22
5380;BME280;2713;42.680;23.310;2023-01-25T04:56:41;96157.59;;;4.71;75.97
5380;BME280;2713;42.680;23.310;2023-01-25T04:59:07;96158.06;;;4.53;76.49
5380;BME280;2713;42.680;23.310;2023-01-25T05:01:34;96160.41;;;4.79;76.42
5380;BME280;2713;42.680;23.310;2023-01-25T05:04:04;96158.78;;;4.78;75.71
5380;BME280;2713;42.680;23.310;2023-01-25T05:06:36;96158.28;;;4.84;74.82
5380;BME280;2713;42.680;23.310;2023-01-25T05:09:03;96153.47;;;4.35;76.61
5380;BME280;2713;42.680;23.310;2023-01-25T05:11:32;96150.88;;;4.24;76.73
5380;BME280;2713;42.680;23.310;2023-01-25T05:14:21;96150.41;;;4.30;76.75
5380;BME280;2713;42.680;23.310;2023-01-25T05:16:48;96157.53;;;4.26;76.37
5380;BME280;2713;42.680;23.310;2023-01-25T05:19:16;96148.47;;;4.44;76.01
5380;BME280;2713;42.680;23.310;2023-01-25T05:21:54;96154.91;;;4.61;75.02
5380;BME280;2713;42.680;23.310;2023-01-25T05:24:28;96147.84;;;4.30;76.38
5380;BME280;2713;42.680;23.310;2023-01-25T05:26:58;96124.06;;;4.04;76.27
5380;BME280;2713;42.680;23.310;2023-01-25T05:29:40;96151.53;;;4.15;75.86
5380;BME280;2713;42.680;23.310;2023-01-25T05:32:10;96148.59;;;4.08;76.39
5380;BME280;2713;42.680;23.310;2023-01-25T05:34:38;96157.31;;;4.29;75.70
5380;BME280;2713;42.680;23.310;2023-01-25T05:37:06;96155.25;;;4.56;75.76
5380;BME280;2713;42.680;23.310;2023-01-25T05:39:38;96153.84;;;4.75;74.98
5380;BME280;2713;42.680;23.310;2023-01-25T05:42:09;96144.00;;;4.91;74.52
5380;BME280;2713;42.680;23.310;2023-01-25T05:44:36;96156.66;;;4.94;74.73
5380;BME280;2713;42.680;23.310;2023-01-25T05:47:04;96159.13;;;4.62;74.31
5380;BME280;2713;42.680;23.310;2023-01-25T05:49:31;96155.91;;;4.36;75.65
5380;BME280;2713;42.680;23.310;2023-01-25T05:51:58;96166.31;;;4.24;75.98
5380;BME280;2713;42.680;23.310;2023-01-25T05:54:26;96158.41;;;4.38;75.55
5380;BME280;2713;42.680;23.310;2023-01-25T05:56:59;96163.88;;;4.33;76.10
5380;BME280;2713;42.680;23.310;2023-01-25T05:59:27;96171.09;;;4.17;75.48
5380;BME280;2713;42.680;23.310;2023-01-25T06:01:54;96165.72;;;4.20;76.07
5380;BME280;2713;42.680;23.310;2023-01-25T06:04:22;96158.63;;;4.46;75.75
5380;BME280;2713;42.680;23.310;2023-01-25T06:06:49;96165.53;;;4.45;75.22
5380;BME280;2713;42.680;23.310;2023-01-25T06:09:16;96162.75;;;4.48;74.91
5380;BME280;2713;42.680;23.310;2023-01-25T06:11:44;96134.03;;;4.31;75.39
5380;BME280;2713;42.680;23.310;2023-01-25T06:14:12;96162.13;;;4.56;74.62
5380;BME280;2713;42.680;23.310;2023-01-25T06:16:40;96165.75;;;4.42;74.17
5380;BME280;2713;42.680;23.310;2023-01-25T06:19:43;96170.22;;;4.40;74.60
5380;BME280;2713;42.680;23.310;2023-01-25T06:22:34;96175.28;;;4.18;74.60
5380;BME280;2713;42.680;23.310;2023-01-25T06:25:01;96176.59;;;3.89;76.49
5380;BME280;2713;42.680;23.310;2023-01-25T06:27:27;96175.50;;;3.80;76.31
5380;BME280;2713;42.680;23.310;2023-01-25T06:29:54;96174.19;;;3.98;76.60
5380;BME280;2713;42.680;23.310;2023-01-25T06:32:21;96175.91;;;3.63;76.08
5380;BME280;2713;42.680;23.310;2023-01-25T06:34:51;96164.19;;;3.12;78.45
5380;BME280;2713;42.680;23.310;2023-01-25T06:37:20;96165.44;;;4.12;81.68
5380;BME280;2713;42.680;23.310;2023-01-25T06:39:47;96167.63;;;3.71;77.04
5380;BME280;2713;42.680;23.310;2023-01-25T06:42:14;96170.19;;;3.60;77.83
5380;BME280;2713;42.680;23.310;2023-01-25T06:44:41;96171.34;;;3.67;77.63
5380;BME280;2713;42.680;23.310;2023-01-25T06:47:08;96167.78;;;3.80;77.10
5380;BME280;2713;42.680;23.310;2023-01-25T06:49:35;96167.69;;;3.82;76.43
5380;BME280;2713;42.680;23.310;2023-01-25T06:52:04;96171.19;;;3.57;77.09
5380;BME280;2713;42.680;23.310;2023-01-25T06:54:31;96169.13;;;3.86;77.27
5380;BME280;2713;42.680;23.310;2023-01-25T06:56:57;96174.50;;;3.94;76.20
5380;BME280;2713;42.680;23.310;2023-01-25T06:59:24;96158.78;;;3.51;76.52
5380;BME280;2713;42.680;23.310;2023-01-25T07:01:51;96173.16;;;3.53;77.17
5380;BME280;2713;42.680;23.310;2023-01-25T07:04:18;96167.78;;;3.69;77.29
5380;BME280;2713;42.680;23.310;2023-01-25T07:06:45;96169.00;;;3.64;77.35
5380;BME280;2713;42.680;23.310;2023-01-25T07:09:13;96165.06;;;3.47;77.58
5380;BME280;2713;42.680;23.310;2023-01-25T07:11:40;96173.78;;;3.57;77.33
5380;BME280;2713;42.680;23.310;2023-01-25T07:14:07;96169.41;;;4.05;78.76
5380;BME280;2713;42.680;23.310;2023-01-25T07:16:34;96160.81;;;3.58;76.73
5380;BME280;2713;42.680;23.310;2023-01-25T07:19:03;96171.97;;;3.70;77.66
5380;BME280;2713;42.680;23.310;2023-01-25T07:21:30;96172.31;;;3.42;77.39
5380;BME280;2713;42.680;23.310;2023-01-25T07:23:59;96174.19;;;3.27;77.89
5380;BME280;2713;42.680;23.310;2023-01-25T07:26:27;96169.59;;;3.20;78.58
5380;BME280;2713;42.680;23.310;2023-01-25T07:28:56;96165.41;;;3.42;78.07
5380;BME280;2713;42.680;23.310;2023-01-25T07:31:24;96178.09;;;3.56;77.83
5380;BME280;2713;42.680;23.310;2023-01-25T07:33:53;96168.47;;;3.47;77.14
5380;BME280;2713;42.680;23.310;2023-01-25T07:36:21;96180.03;;;3.29;78.10
5380;BME280;2713;42.680;23.310;2023-01-25T07:38:51;96179.13;;;2.94;79.00
5380;BME280;2713;42.680;23.310;2023-01-25T07:41:19;96182.72;;;2.66;79.38
5380;BME280;2713;42.680;23.310;2023-01-25T07:43:47;96189.16;;;2.84;79.47
5380;BME280;2713;42.680;23.310;2023-01-25T07:46:26;96192.19;;;3.27;78.07
5380;BME280;2713;42.680;23.310;2023-01-25T07:48:53;96188.75;;;3.03;78.05
5380;BME280;2713;42.680;23.310;2023-01-25T07:51:21;96180.94;;;2.92;78.94
5380;BME280;2713;42.680;23.310;2023-01-25T07:53:49;96181.59;;;2.83;79.43
5380;BME280;2713;42.680;23.310;2023-01-25T07:56:17;96190.84;;;2.73;79.48
5380;BME280;2713;42.680;23.310;2023-01-25T07:58:46;96191.34;;;2.78;80.56
5380;BME280;2713;42.680;23.310;2023-01-25T08:01:16;96191.84;;;2.58;80.40
5380;BME280;2713;42.680;23.310;2023-01-25T08:03:43;96186.41;;;2.75;80.53
5380;BME280;2713;42.680;23.310;2023-01-25T08:06:11;96169.47;;;2.72;79.97
5380;BME280;2713;42.680;23.310;2023-01-25T08:08:40;96178.19;;;2.57;81.11
5380;BME280;2713;42.680;23.310;2023-01-25T08:11:10;96183.56;;;2.41;82.32
5380;BME280;2713;42.680;23.310;2023-01-25T08:13:38;96177.91;;;2.62;82.10
5380;BME280;2713;42.680;23.310;2023-01-25T08:16:08;96175.09;;;2.90;80.63
5380;BME280;2713;42.680;23.310;2023-01-25T08:18:35;96182.28;;;2.97;79.96
5380;BME280;2713;42.680;23.310;2023-01-25T08:21:01;96183.69;;;3.01;80.33
5380;BME280;2713;42.680;23.310;2023-01-25T08:23:29;96185.50;;;2.76;81.60
5380;BME280;2713;42.680;23.310;2023-01-25T08:26:00;96181.81;;;2.54;81.91
5380;BME280;2713;42.680;23.310;2023-01-25T08:28:27;96163.03;;;2.67;81.21
5380;BME280;2713;42.680;23.310;2023-01-25T08:30:54;96168.91;;;3.05;81.45
5380;BME280;2713;42.680;23.310;2023-01-25T08:33:22;96171.81;;;3.00;80.62
5380;BME280;2713;42.680;23.310;2023-01-25T08:35:53;96176.75;;;2.78;81.31
5380;BME280;2713;42.680;23.310;2023-01-25T08:38:23;96175.00;;;2.79;81.41
5380;BME280;2713;42.680;23.310;2023-01-25T08:40:50;96176.44;;;2.95;81.56
5380;BME280;2713;42.680;23.310;2023-01-25T08:43:17;96172.28;;;3.18;80.75
5380;BME280;2713;42.680;23.310;2023-01-25T08:45:44;96169.59;;;3.43;80.22
5380;BME280;2713;42.680;23.310;2023-01-25T08:48:11;96161.88;;;3.56;79.25
5380;BME280;2713;42.680;23.310;2023-01-25T08:50:45;96158.84;;;3.62;79.02
5380;BME280;2713;42.680;23.310;2023-01-25T08:53:12;96153.94;;;3.35;79.65
5380;BME280;2713;42.680;23.310;2023-01-25T08:55:39;96169.44;;;3.57;79.36
5380;BME280;2713;42.680;23.310;2023-01-25T08:58:08;96166.19;;;3.32;79.55
5380;BME280;2713;42.680;23.310;2023-01-25T09:00:36;96168.53;;;3.35;79.81
5380;BME280;2713;42.680;23.310;2023-01-25T09:03:03;96173.22;;;3.41;79.63
5380;BME280;2713;42.680;23.310;2023-01-25T09:05:30;96172.41;;;3.64;78.67
5380;BME280;2713;42.680;23.310;2023-01-25T09:08:00;96161.59;;;3.48;80.19
5380;BME280;2713;42.680;23.310;2023-01-25T09:10:27;96162.72;;;3.20;80.67
5380;BME280;2713;42.680;23.310;2023-01-25T09:12:54;96167.44;;;3.14;81.37
5380;BME280;2713;42.680;23.310;2023-01-25T09:15:20;96144.44;;;3.36;80.69
5380;BME280;2713;42.680;23.310;2023-01-25T09:17:49;96161.47;;;3.49;80.86
5380;BME280;2713;42.680;23.310;2023-01-25T09:20:16;96156.59;;;3.34;80.72
5380;BME280;2713;42.680;23.310;2023-01-25T09:22:43;96147.84;;;3.36;80.80
5380;BME280;2713;42.680;23.310;2023-01-25T09:25:12;96150.63;;;3.33;81.11
5380;BME280;2713;42.680;23.310;2023-01-25T09:27:39;96150.31;;;3.38;81.17
5380;BME280;2713;42.680;23.310;2023-01-25T09:30:09;96144.34;;;3.14;81.97
5380;BME280;2713;42.680;23.310;2023-01-25T09:32:36;96144.34;;;3.14;82.25
5380;BME280;2713;42.680;23.310;2023-01-25T09:35:04;96127.78;;;3.18;81.66
5380;BME280;2713;42.680;23.310;2023-01-25T09:37:33;96132.66;;;3.57;82.45
5380;BME280;2713;42.680;23.310;2023-01-25T09:39:59;96131.16;;;3.89;80.08
5380;BME280;2713;42.680;23.310;2023-01-25T09:42:44;96128.44;;;3.91;79.94
5380;BME280;2713;42.680;23.310;2023-01-25T09:45:24;96117.59;;;3.64;80.58
5380;BME280;2713;42.680;23.310;2023-01-25T09:47:55;96115.31;;;3.72;81.64
5380;BME280;2713;42.680;23.310;2023-01-25T09:50:32;96112.53;;;3.86;80.53
5380;BME280;2713;42.680;23.310;2023-01-25T09:53:21;96100.44;;;4.10;80.24
5380;BME280;2713;42.680;23.310;2023-01-25T09:55:51;96113.97;;;3.90;79.65
5380;BME280;2713;42.680;23.310;2023-01-25T09:58:26;96108.38;;;3.96;79.77
5380;BME280;2713;42.680;23.310;2023-01-25T10:01:06;96092.25;;;4.05;79.29
5380;BME280;2713;42.680;23.310;2023-01-25T10:03:40;96095.31;;;4.21;78.65
5380;BME280;2713;42.680;23.310;2023-01-25T10:06:12;96089.13;;;4.24;78.25
5380;BME280;2713;42.680;23.310;2023-01-25T10:08:47;96084.50;;;3.94;79.39
5380;BME280;2713;42.680;23.310;2023-01-25T10:11:20;96082.38;;;3.88;79.40
5380;BME280;2713;42.680;23.310;2023-01-25T10:13:49;96081.03;;;4.17;78.49
5380;BME280;2713;42.680;23.310;2023-01-25T10:16:20;96073.91;;;4.32;77.74
5380;BME280;2713;42.680;23.310;2023-01-25T10:18:57;96075.19;;;4.15;77.25
5380;BME280;2713;42.680;23.310;2023-01-25T10:21:29;96046.50;;;3.86;78.27
5380;BME280;2713;42.680;23.310;2023-01-25T10:24:17;96058.56;;;3.51;77.88
5380;BME280;2713;42.680;23.310;2023-01-25T10:26:54;96064.56;;;3.28;79.73
5380;BME280;2713;42.680;23.310;2023-01-25T10:29:26;96049.00;;;3.29;80.02
5380;BME280;2713;42.680;23.310;2023-01-25T10:31:54;96066.53;;;3.24;78.93
5380;BME280;2713;42.680;23.310;2023-01-25T10:34:30;96042.63;;;3.35;79.51
5380;BME280;2713;42.680;23.310;2023-01-25T10:37:01;96046.63;;;3.50;79.38
5380;BME280;2713;42.680;23.310;2023-01-25T10:39:31;96044.00;;;3.63;78.63
5380;BME280;2713;42.680;23.310;2023-01-25T10:42:07;96037.31;;;3.60;77.73
5380;BME280;2713;42.680;23.310;2023-01-25T10:44:36;96043.38;;;3.48;77.21
5380;BME280;2713;42.680;23.310;2023-01-25T10:47:05;96039.78;;;3.62;76.91
5380;BME280;2713;42.680;23.310;2023-01-25T10:49:40;96032.25;;;3.47;76.63
5380;BME280;2713;42.680;23.310;2023-01-25T10:52:13;96025.78;;;3.66;77.36
5380;BME280;2713;42.680;23.310;2023-01-25T10:54:40;96019.03;;;3.87;76.69
5380;BME280;2713;42.680;23.310;2023-01-25T10:57:08;96017.88;;;3.80;76.68
5380;BME280;2713;42.680;23.310;2023-01-25T10:59:38;96018.81;;;4.01;76.24
5380;BME280;2713;42.680;23.310;2023-01-25T11:02:39;96014.38;;;4.25;75.35
5380;BME280;2713;42.680;23.310;2023-01-25T11:05:31;96011.31;;;4.42;74.52
5380;BME280;2713;42.680;23.310;2023-01-25T11:08:18;96012.03;;;4.33;74.67
5380;BME280;2713;42.680;23.310;2023-01-25T11:10:47;96009.44;;;4.55;74.00
5380;BME280;2713;42.680;23.310;2023-01-25T11:13:20;96011.53;;;4.62;72.68
5380;BME280;2713;42.680;23.310;2023-01-25T11:15:50;96008.38;;;4.69;72.11
5380;BME280;2713;42.680;23.310;2023-01-25T11:18:20;95986.22;;;4.78;71.79
5380;BME280;2713;42.680;23.310;2023-01-25T11:21:03;96000.44;;;4.61;72.18
5380;BME280;2713;42.680;23.310;2023-01-25T11:23:30;95993.91;;;4.35;73.58
5380;BME280;2713;42.680;23.310;2023-01-25T11:26:11;95993.69;;;4.27;73.19
5380;BME280;2713;42.680;23.310;2023-01-25T11:28:38;95986.78;;;4.27;73.02
5380;BME280;2713;42.680;23.310;2023-01-25T11:31:10;95997.19;;;4.48;72.65
5380;BME280;2713;42.680;23.310;2023-01-25T11:33:38;95992.47;;;4.53;71.98
5380;BME280;2713;42.680;23.310;2023-01-25T11:36:16;95983.00;;;4.53;72.25
5380;BME280;2713;42.680;23.310;2023-01-25T11:38:56;95987.47;;;4.51;72.04
5380;BME280;2713;42.680;23.310;2023-01-25T11:41:31;95978.53;;;4.55;71.90
5380;BME280;2713;42.680;23.310;2023-01-25T11:44:29;95974.41;;;4.21;72.45
5380;BME280;2713;42.680;23.310;2023-01-25T11:47:15;95963.50;;;3.95;73.60
5380;BME280;2713;42.680;23.310;2023-01-25T11:49:54;95947.84;;;3.98;74.07
5380;BME280;2713;42.680;23.310;2023-01-25T11:52:33;95947.59;;;4.35;73.30
5380;BME280;2713;42.680;23.310;2023-01-25T11:55:12;95944.34;;;4.76;72.49
5380;BME280;2713;42.680;23.310;2023-01-25T12:16:02;95925.53;;;5.17;71.23
5380;BME280;2713;42.680;23.310;2023-01-25T12:22:07;95933.56;;;4.28;72.65
5380;BME280;2713;42.680;23.310;2023-01-25T12:24:44;95928.53;;;4.26;72.25
5380;BME280;2713;42.680;23.310;2023-01-25T12:27:24;95930.28;;;4.26;73.89
5380;BME280;2713;42.680;23.310;2023-01-25T12:29:57;95923.16;;;4.72;72.15
5380;BME280;2713;42.680;23.310;2023-01-25T12:32:31;95912.75;;;4.63;71.97
5380;BME280;2713;42.680;23.310;2023-01-25T12:35:09;95920.69;;;4.28;72.54
5380;BME280;2713;42.680;23.310;2023-01-25T12:37:41;95912.97;;;4.28;73.32
5380;BME280;2713;42.680;23.310;2023-01-25T12:40:12;95903.34;;;4.41;73.52
5380;BME280;2713;42.680;23.310;2023-01-25T12:42:45;95902.25;;;4.54;73.04
5380;BME280;2713;42.680;23.310;2023-01-25T12:45:16;95913.47;;;4.65;71.86
5380;BME280;2713;42.680;23.310;2023-01-25T12:47:49;95906.09;;;4.17;72.45
5380;BME280;2713;42.680;23.310;2023-01-25T12:50:19;95905.13;;;4.18;73.21
5380;BME280;2713;42.680;23.310;2023-01-25T12:52:50;95900.56;;;4.33;73.26
5380;BME280;2713;42.680;23.310;2023-01-25T12:55:18;95906.09;;;4.17;73.14
5380;BME280;2713;42.680;23.310;2023-01-25T12:57:53;95903.34;;;3.87;74.06
5380;BME280;2713;42.680;23.310;2023-01-25T13:00:30;95901.78;;;3.84;73.82
5380;BME280;2713;42.680;23.310;2023-01-25T13:03:10;95897.50;;;3.63;75.72
5380;BME280;2713;42.680;23.310;2023-01-25T13:05:45;95889.31;;;3.80;74.27
5380;BME280;2713;42.680;23.310;2023-01-25T13:08:22;95890.56;;;3.85;74.86
5380;BME280;2713;42.680;23.310;2023-01-25T13:10:51;95882.53;;;3.90;74.98
5380;BME280;2713;42.680;23.310;2023-01-25T13:13:22;95881.78;;;4.10;73.52
5380;BME280;2713;42.680;23.310;2023-01-25T13:15:50;95880.13;;;4.09;73.42
5380;BME280;2713;42.680;23.310;2023-01-25T13:18:35;95879.22;;;3.88;73.42
5380;BME280;2713;42.680;23.310;2023-01-25T13:21:04;95873.41;;;3.52;74.62
5380;BME280;2713;42.680;23.310;2023-01-25T13:23:34;95874.56;;;3.71;75.49
5380;BME280;2713;42.680;23.310;2023-01-25T13:26:36;95877.38;;;3.79;74.40
5380;BME280;2713;42.680;23.310;2023-01-25T13:29:03;95879.03;;;3.80;74.81
5380;BME280;2713;42.680;23.310;2023-01-25T13:31:45;95868.50;;;3.83;73.59
5380;BME280;2713;42.680;23.310;2023-01-25T13:37:21;95879.22;;;3.88;73.36
5380;BME280;2713;42.680;23.310;2023-01-25T13:39:50;95869.50;;;4.14;73.86
5380;BME280;2713;42.680;23.310;2023-01-25T13:42:21;95863.06;;;4.08;72.82
5380;BME280;2713;42.680;23.310;2023-01-25T13:44:51;95866.03;;;4.35;72.48
5380;BME280;2713;42.680;23.310;2023-01-25T13:47:21;95874.97;;;4.31;73.49
5380;BME280;2713;42.680;23.310;2023-01-25T13:49:54;95887.19;;;4.07;72.64
5380;BME280;2713;42.680;23.310;2023-01-25T13:52:24;95890.81;;;3.71;74.43
5380;BME280;2713;42.680;23.310;2023-01-25T13:54:54;95885.31;;;3.87;74.05
5380;BME280;2713;42.680;23.310;2023-01-25T13:57:24;95888.13;;;3.73;74.60
5380;BME280;2713;42.680;23.310;2023-01-25T13:59:59;95886.50;;;3.72;74.85
5380;BME280;2713;42.680;23.310;2023-01-25T14:02:27;95884.75;;;3.72;74.92
5380;BME280;2713;42.680;23.310;2023-01-25T14:04:57;95890.00;;;3.71;75.32
5380;BME280;2713;42.680;23.310;2023-01-25T14:07:29;95893.16;;;3.85;74.04
5380;BME280;2713;42.680;23.310;2023-01-25T14:10:00;95892.59;;;3.60;74.87